Portada
METAR-TAF:

METAR-TAF

Aeroports :

Apia, Upolu, Samoa

latitud: 13-49S, longitud: 172-00W, altitud: 5 m

Observació

L'informe es va fer fa 1 hora i 37 minuts, a les 22:00 UTC
Vent 8 kt del Est/Nord-Est
Temperatura 26°C
Humitat 89%
Pressió 1013 hPa
Visibilitat 10 km o més
Núvols disperses a una alçada de 1800 ft
Cel ennuvolat a una alçada de 4500 ft
Cel cobert a una alçada de 14000 ft
plugim

METAR: NSFA 272200Z 07008KT 9999 -DZ SCT018 BKN045 OVC140 26/24 Q1013

Hora: 13:37 (23:37 UTC)

Pronòstic

L'informe es va fer fa 6 hores i 23 minuts, a les 17:14 UTC
Pronòstic vàlid del 27 a les 18 UTC al 28 a les 18 UTC
Vent 5 kt del Sud/Sud-Est
Visibilitat 10 km o més
Escasses núvols a una alçada de 2600 ft
Probabilitat 40% :
Temporalment
l' 27 a les 18 UTC al 28 a les 18 UTC
Visibilitat: 5000 m
Cel ennuvolat a una alçada de 1500 ft
xàfecs de pluja

TAF: NSFA 271714Z 2718/2818 15005KT 9999 FEW026 PROB40 TEMPO 2718/2818 5000 SHRA BKN015

Observacions i pronòstics meteorològics de més de 4000 aeroports (METAR i TAF).

Les estacions disponibles són els punts grocs i vermells al mapa.

Posi el ratolí al punt desitjat per veure el nom de l'estació.

Feu clic per veure les observacions i els pronòstics meteorològics.

Per canviar el mapa: feu clic els botons verds amb una creu de color negre per apropar; al botó verd amb un guió per allunyar la imatge; o en les fletxes verdes per a mapes adjacents.


METAR-TAF: